createdAt,value
2023-01-11T00:00:08.523Z,100.00
2023-01-11T00:02:46.247Z,100.00
2023-01-11T00:05:13.082Z,100.00
2023-01-11T00:07:41.027Z,100.00
2023-01-11T00:10:09.109Z,100.00
2023-01-11T00:12:36.002Z,100.00
2023-01-11T00:15:02.814Z,100.00
2023-01-11T00:17:33.617Z,100.00
2023-01-11T00:20:19.209Z,100.00
2023-01-11T00:22:46.326Z,100.00
2023-01-11T00:25:23.293Z,100.00
2023-01-11T00:54:52.542Z,100.00
2023-01-11T00:57:19.815Z,100.00
2023-01-11T00:59:49.407Z,100.00
2023-01-11T01:02:50.903Z,100.00
2023-01-11T01:05:32.786Z,100.00
2023-01-11T01:07:59.569Z,100.00
2023-01-11T01:10:30.037Z,100.00
2023-01-11T01:13:21.350Z,100.00
2023-01-11T01:16:36.368Z,100.00
2023-01-11T01:19:03.851Z,100.00
2023-01-11T01:21:30.670Z,100.00
2023-01-11T01:24:00.898Z,100.00
2023-01-11T01:26:36.864Z,100.00
2023-01-11T01:29:18.838Z,100.00
2023-01-11T01:31:48.180Z,100.00
2023-01-11T01:34:18.767Z,100.00
2023-01-11T01:36:46.942Z,100.00
2023-01-11T01:39:13.837Z,99.27
2023-01-11T01:41:40.625Z,99.58
2023-01-11T01:44:44.834Z,100.00
2023-01-11T01:47:12.683Z,100.00
2023-01-11T01:49:40.838Z,99.79
2023-01-11T01:52:10.401Z,99.28
2023-01-11T01:54:40.726Z,98.02
2023-01-11T01:57:14.135Z,97.60
2023-01-11T01:59:42.028Z,97.73
2023-01-11T02:02:09.076Z,98.50
2023-01-11T02:04:40.236Z,98.48
2023-01-11T02:07:40.619Z,97.75
2023-01-11T02:10:09.602Z,97.28
2023-01-11T02:12:42.130Z,97.11
2023-01-11T02:15:11.024Z,96.97
2023-01-11T02:17:38.018Z,97.98
2023-01-11T02:20:14.169Z,99.08
2023-01-11T02:22:52.558Z,99.35
2023-01-11T02:25:31.992Z,98.86
2023-01-11T02:28:08.956Z,100.00
2023-01-11T02:30:57.724Z,99.74
2023-01-11T02:33:39.436Z,99.97
2023-01-11T02:36:44.725Z,100.00
2023-01-11T02:39:28.882Z,99.66
2023-01-11T02:42:30.118Z,100.00
2023-01-11T02:45:02.526Z,99.88
2023-01-11T02:47:44.815Z,98.96
2023-01-11T02:50:33.192Z,98.64
2023-01-11T02:53:15.223Z,99.69
2023-01-11T02:55:48.449Z,100.00
2023-01-11T02:58:18.195Z,100.00
2023-01-11T03:00:46.650Z,100.00
2023-01-11T03:03:17.976Z,100.00
2023-01-11T03:05:52.778Z,100.00
2023-01-11T03:08:52.160Z,100.00
2023-01-11T03:11:49.483Z,100.00
2023-01-11T03:14:28.793Z,100.00
2023-01-11T03:17:18.365Z,100.00
2023-01-11T03:19:54.269Z,100.00
2023-01-11T03:22:40.103Z,100.00
2023-01-11T03:25:17.957Z,100.00
2023-01-11T03:28:02.824Z,100.00
2023-01-11T03:30:43.161Z,100.00
2023-01-11T03:33:20.640Z,100.00
2023-01-11T03:35:55.868Z,100.00
2023-01-11T03:38:33.189Z,100.00
2023-01-11T03:41:12.184Z,100.00
2023-01-11T03:43:44.063Z,100.00
2023-01-11T03:46:15.523Z,100.00
2023-01-11T03:48:52.443Z,100.00
2023-01-11T03:51:24.965Z,100.00
2023-01-11T03:53:52.919Z,100.00
2023-01-11T03:56:25.300Z,100.00
2023-01-11T03:58:51.997Z,100.00
2023-01-11T04:01:18.819Z,100.00
2023-01-11T04:03:45.434Z,100.00
2023-01-11T04:06:12.613Z,100.00
2023-01-11T04:08:39.267Z,100.00
2023-01-11T04:11:05.975Z,100.00
2023-01-11T04:13:34.126Z,100.00
2023-01-11T04:16:01.099Z,100.00
2023-01-11T04:18:28.303Z,100.00
2023-01-11T04:20:55.171Z,100.00
2023-01-11T04:23:21.984Z,100.00
2023-01-11T04:25:48.906Z,100.00
2023-01-11T04:28:15.730Z,100.00
2023-01-11T04:30:42.368Z,100.00
2023-01-11T04:33:10.936Z,100.00
2023-01-11T04:35:37.584Z,100.00
2023-01-11T04:38:04.344Z,100.00
2023-01-11T04:40:31.176Z,100.00
2023-01-11T04:43:02.292Z,100.00
2023-01-11T04:45:29.977Z,100.00
2023-01-11T04:47:58.058Z,100.00
2023-01-11T04:50:26.020Z,100.00
2023-01-11T04:52:53.123Z,100.00
2023-01-11T04:55:20.997Z,100.00
2023-01-11T04:57:47.781Z,100.00
2023-01-11T05:00:16.030Z,100.00
2023-01-11T05:02:42.809Z,100.00
2023-01-11T05:05:10.664Z,100.00
2023-01-11T05:07:38.981Z,100.00
2023-01-11T05:10:06.415Z,100.00
2023-01-11T05:15:17.082Z,100.00
2023-01-11T05:17:49.995Z,100.00
2023-01-11T05:20:19.449Z,100.00
2023-01-11T05:22:46.224Z,100.00
2023-01-11T05:25:13.188Z,100.00
2023-01-11T05:27:41.294Z,100.00
2023-01-11T05:30:08.819Z,100.00
2023-01-11T05:32:36.798Z,100.00
2023-01-11T05:35:03.882Z,100.00
2023-01-11T05:37:32.684Z,100.00
2023-01-11T05:39:59.535Z,100.00
2023-01-11T05:42:32.136Z,100.00
2023-01-11T05:45:17.439Z,100.00
2023-01-11T05:47:44.280Z,100.00
2023-01-11T05:50:11.283Z,100.00
2023-01-11T05:52:37.908Z,100.00
2023-01-11T05:55:05.068Z,100.00
2023-01-11T05:57:31.757Z,100.00
2023-01-11T05:59:58.601Z,100.00
2023-01-11T06:02:25.511Z,100.00
2023-01-11T06:04:52.204Z,100.00
2023-01-11T06:07:18.801Z,100.00
2023-01-11T06:09:45.563Z,100.00
2023-01-11T06:12:12.465Z,100.00
2023-01-11T06:14:41.263Z,100.00
2023-01-11T06:17:08.133Z,100.00
2023-01-11T06:19:34.836Z,100.00
2023-01-11T06:22:01.756Z,100.00
2023-01-11T06:29:30.837Z,100.00
2023-01-11T06:31:58.436Z,100.00
2023-01-11T06:34:25.179Z,100.00
2023-01-11T06:36:51.998Z,100.00
2023-01-11T06:39:19.306Z,100.00
2023-01-11T06:41:45.962Z,100.00
2023-01-11T06:44:12.802Z,100.00
2023-01-11T06:46:39.679Z,100.00
2023-01-11T06:49:06.352Z,100.00
2023-01-11T06:51:33.175Z,100.00
2023-01-11T06:53:59.776Z,100.00
2023-01-11T06:56:26.481Z,100.00
2023-01-11T06:58:53.242Z,100.00
2023-01-11T07:01:20.205Z,100.00
2023-01-11T07:03:46.971Z,100.00
2023-01-11T07:06:14.241Z,100.00
2023-01-11T07:08:40.841Z,100.00
2023-01-11T07:11:09.099Z,100.00
2023-01-11T07:13:35.949Z,100.00
2023-01-11T07:16:02.583Z,100.00
2023-01-11T07:18:31.754Z,100.00
2023-01-11T07:20:58.483Z,100.00
2023-01-11T07:23:25.156Z,100.00
2023-01-11T07:25:51.892Z,100.00
2023-01-11T07:28:18.641Z,100.00
2023-01-11T07:30:57.280Z,100.00
2023-01-11T07:33:25.312Z,100.00
2023-01-11T07:35:52.037Z,100.00
2023-01-11T07:38:18.690Z,100.00
2023-01-11T07:40:45.599Z,100.00
2023-01-11T07:43:18.328Z,100.00
2023-01-11T07:45:49.816Z,100.00
2023-01-11T07:48:27.102Z,100.00
2023-01-11T07:50:54.939Z,100.00
2023-01-11T07:53:22.244Z,100.00
2023-01-11T07:55:48.868Z,100.00
2023-01-11T07:58:16.256Z,100.00
2023-01-11T08:00:43.441Z,100.00
2023-01-11T08:03:10.606Z,100.00
2023-01-11T08:05:38.038Z,100.00
2023-01-11T08:08:05.324Z,100.00
2023-01-11T08:10:32.033Z,100.00
2023-01-11T08:13:17.761Z,100.00
2023-01-11T08:15:44.602Z,100.00
2023-01-11T08:18:12.500Z,100.00
2023-01-11T08:20:40.123Z,100.00
2023-01-11T08:23:09.041Z,100.00
2023-01-11T08:25:35.775Z,100.00
2023-01-11T08:28:04.822Z,100.00
2023-01-11T08:30:32.304Z,100.00
2023-01-11T08:33:01.928Z,100.00
2023-01-11T08:38:12.689Z,100.00
2023-01-11T08:40:42.439Z,100.00
2023-01-11T08:45:46.762Z,100.00
2023-01-11T08:48:22.706Z,100.00
2023-01-11T08:50:49.669Z,100.00
2023-01-11T08:55:56.647Z,100.00
2023-01-11T08:58:24.640Z,100.00
2023-01-11T09:03:34.140Z,100.00
2023-01-11T09:06:01.216Z,100.00
2023-01-11T09:08:36.687Z,100.00
2023-01-11T09:11:26.284Z,100.00
2023-01-11T09:13:53.032Z,100.00
2023-01-11T09:16:19.842Z,100.00
2023-01-11T09:18:46.558Z,100.00
2023-01-11T09:21:13.234Z,100.00
2023-01-11T09:23:40.032Z,100.00
2023-01-11T09:26:06.767Z,100.00
2023-01-11T09:28:33.531Z,100.00
2023-01-11T09:31:00.275Z,100.00
2023-01-11T09:36:03.193Z,100.00
2023-01-11T09:38:31.019Z,100.00
2023-01-11T09:41:23.356Z,100.00
2023-01-11T09:46:30.040Z,100.00
2023-01-11T09:48:59.761Z,100.00
2023-01-11T09:51:35.888Z,100.00
2023-01-11T09:54:06.054Z,100.00
2023-01-11T09:59:25.856Z,100.00
2023-01-11T10:04:36.923Z,99.75
2023-01-11T10:07:28.138Z,98.99
2023-01-11T10:18:25.676Z,98.95
2023-01-11T10:19:39.508Z,99.41
2023-01-11T10:22:23.600Z,99.65
2023-01-11T10:25:00.558Z,99.57
2023-01-11T10:27:35.772Z,98.39
2023-01-11T10:30:33.478Z,97.18
2023-01-11T10:33:38.136Z,97.40
2023-01-11T10:36:45.065Z,96.62
2023-01-11T10:39:46.745Z,96.34
2023-01-11T10:42:28.878Z,94.53
2023-01-11T10:45:13.214Z,95.17
2023-01-11T10:47:51.306Z,95.71
2023-01-11T10:50:35.062Z,93.14
2023-01-11T10:53:17.128Z,94.67
2023-01-11T10:55:46.611Z,94.31
2023-01-11T10:58:28.464Z,94.92
2023-01-11T11:01:27.228Z,95.48
2023-01-11T11:04:02.905Z,93.19
2023-01-11T11:06:50.001Z,92.74
2023-01-11T11:09:22.946Z,90.64
2023-01-11T11:12:04.404Z,89.86
2023-01-11T11:14:42.292Z,89.22
2023-01-11T11:17:47.376Z,88.32
2023-01-11T11:20:17.310Z,88.11
2023-01-11T11:22:45.209Z,88.08
2023-01-11T11:25:23.292Z,86.44
2023-01-11T11:47:20.748Z,72.45
2023-01-11T11:58:02.665Z,65.01
2023-01-11T12:24:39.646Z,64.90
2023-01-11T12:27:32.445Z,66.92
2023-01-11T12:30:20.816Z,62.42
2023-01-11T12:33:05.626Z,58.78
2023-01-11T12:35:50.106Z,56.90
2023-01-11T12:38:31.634Z,55.93
2023-01-11T12:41:42.828Z,55.54
2023-01-11T12:44:41.642Z,54.61
2023-01-11T12:47:15.720Z,54.16
2023-01-11T12:49:57.511Z,54.49
2023-01-11T12:52:56.785Z,58.17
2023-01-11T12:55:34.389Z,60.13
2023-01-11T12:58:14.144Z,63.21
2023-01-11T13:01:07.266Z,67.07
2023-01-11T13:04:11.890Z,70.12
2023-01-11T13:07:00.101Z,67.81
2023-01-11T13:09:48.655Z,69.37
2023-01-11T13:12:21.208Z,69.99
2023-01-11T13:15:17.431Z,70.42
2023-01-11T13:17:53.142Z,71.81
2023-01-11T13:20:37.134Z,72.41
2023-01-11T13:23:44.474Z,73.23
2023-01-11T13:26:11.259Z,72.04
2023-01-11T13:28:43.664Z,69.98
2023-01-11T13:31:13.918Z,65.81
2023-01-11T13:33:47.812Z,65.52
2023-01-11T13:36:23.703Z,67.64
2023-01-11T13:38:53.985Z,68.58
2023-01-11T13:41:23.939Z,67.03
2023-01-11T13:44:04.387Z,68.04
2023-01-11T13:46:51.799Z,69.62
2023-01-11T13:49:53.872Z,69.65
2023-01-11T13:52:25.279Z,68.16
2023-01-11T13:55:11.202Z,68.68
2023-01-11T13:57:56.013Z,68.13
2023-01-11T14:00:30.687Z,67.96
2023-01-11T14:03:26.786Z,69.39
2023-01-11T14:05:59.516Z,69.14
2023-01-11T14:08:52.234Z,70.74
2023-01-11T14:11:37.949Z,71.38
2023-01-11T14:14:24.086Z,72.20
2023-01-11T14:16:50.675Z,72.05
2023-01-11T14:19:17.258Z,71.72
2023-01-11T14:21:53.970Z,71.78
2023-01-11T14:24:23.180Z,71.51
2023-01-11T14:27:12.544Z,72.19
2023-01-11T14:30:35.238Z,72.66
2023-01-11T14:33:31.242Z,73.60
2023-01-11T14:36:25.822Z,73.93
2023-01-11T14:39:11.455Z,74.12
2023-01-11T14:42:29.282Z,73.74
2023-01-11T14:45:03.329Z,74.11
2023-01-11T14:47:47.704Z,73.92
2023-01-11T14:50:30.064Z,73.96
2023-01-11T14:53:00.302Z,74.25
2023-01-11T14:55:37.453Z,73.18
2023-01-11T14:58:25.239Z,72.40
2023-01-11T15:00:55.130Z,72.68
2023-01-11T15:03:21.727Z,72.60
2023-01-11T15:06:18.936Z,73.60
2023-01-11T15:08:49.094Z,73.73
2023-01-11T15:11:23.321Z,73.59
2023-01-11T15:14:22.325Z,74.24
2023-01-11T15:17:12.422Z,74.34
2023-01-11T15:19:42.335Z,74.54
2023-01-11T15:22:23.565Z,73.23
2023-01-11T15:24:58.384Z,73.20
2023-01-11T15:27:31.169Z,73.48
2023-01-11T15:29:58.375Z,72.79
2023-01-11T15:32:26.297Z,73.01
2023-01-11T15:35:22.414Z,72.78
2023-01-11T15:38:04.692Z,73.62
2023-01-11T15:40:54.471Z,74.76
2023-01-11T15:43:51.153Z,75.33
2023-01-11T15:46:45.629Z,75.93
2023-01-11T15:49:38.038Z,75.76
2023-01-11T15:52:19.824Z,76.56
2023-01-11T15:54:52.466Z,76.59
2023-01-11T15:57:26.266Z,77.23
2023-01-11T16:00:30.745Z,77.41
2023-01-11T16:02:57.427Z,77.69
2023-01-11T16:05:27.886Z,78.06
2023-01-11T16:08:15.442Z,77.20
2023-01-11T16:10:51.903Z,77.95
2023-01-11T16:13:48.940Z,78.13
2023-01-11T16:16:29.282Z,78.02
2023-01-11T16:19:12.781Z,78.23
2023-01-11T16:21:42.339Z,79.01
2023-01-11T16:24:15.360Z,79.10
2023-01-11T16:26:42.396Z,79.21
2023-01-11T16:29:19.693Z,79.80
2023-01-11T16:31:58.594Z,80.02
2023-01-11T16:34:27.199Z,79.85
2023-01-11T16:36:53.851Z,79.88
2023-01-11T16:39:24.421Z,79.69
2023-01-11T16:42:06.372Z,79.90
2023-01-11T16:44:41.235Z,80.05
2023-01-11T16:47:14.285Z,79.39
2023-01-11T16:49:43.385Z,79.80
2023-01-11T16:54:45.590Z,79.24
2023-01-11T17:00:18.959Z,80.53
2023-01-11T17:02:48.933Z,79.77
2023-01-11T17:05:21.824Z,80.40
2023-01-11T17:07:48.558Z,80.37
2023-01-11T17:10:28.090Z,80.35
2023-01-11T17:13:46.512Z,80.26
2023-01-11T17:16:17.460Z,80.70
2023-01-11T17:18:44.371Z,80.71
2023-01-11T17:21:28.701Z,80.23
2023-01-11T17:24:00.438Z,80.24
2023-01-11T17:26:34.618Z,80.44
2023-01-11T17:29:01.624Z,80.29
2023-01-11T17:31:32.077Z,80.54
2023-01-11T17:34:21.746Z,79.91
2023-01-11T17:36:48.911Z,80.01
2023-01-11T17:39:26.706Z,78.75
2023-01-11T17:42:12.189Z,78.68
2023-01-11T17:44:59.208Z,78.53
2023-01-11T17:47:26.557Z,78.89
2023-01-11T17:49:56.037Z,79.25
2023-01-11T17:52:24.850Z,79.51
2023-01-11T17:55:14.753Z,78.35
2023-01-11T17:57:41.526Z,78.97
2023-01-11T18:00:28.929Z,79.23
2023-01-11T18:02:58.010Z,79.56
2023-01-11T18:05:29.724Z,80.46
2023-01-11T18:07:58.235Z,80.33
2023-01-11T18:10:28.531Z,79.86
2023-01-11T18:12:58.047Z,79.60
2023-01-11T18:15:24.713Z,79.42
2023-01-11T18:17:57.135Z,79.25
2023-01-11T18:20:29.551Z,79.28
2023-01-11T18:23:00.029Z,78.83
2023-01-11T18:25:29.641Z,77.53
2023-01-11T18:28:11.601Z,78.04
2023-01-11T18:30:39.585Z,77.35
2023-01-11T18:33:22.705Z,77.05
2023-01-11T18:35:59.448Z,77.28
2023-01-11T18:38:28.780Z,77.46
2023-01-11T18:40:57.299Z,76.80
2023-01-11T18:43:32.132Z,76.63
2023-01-11T18:45:58.817Z,76.39
2023-01-11T18:48:25.483Z,76.20
2023-01-11T18:50:54.608Z,76.32
2023-01-11T18:53:23.717Z,76.10
2023-01-11T18:55:50.398Z,76.35
2023-01-11T18:58:17.171Z,75.88
2023-01-11T19:00:44.051Z,76.64
2023-01-11T19:03:12.816Z,76.53
2023-01-11T19:05:40.292Z,76.85
2023-01-11T19:08:07.828Z,76.66
2023-01-11T19:10:34.914Z,75.87
2023-01-11T19:13:03.448Z,76.01
2023-01-11T19:15:30.237Z,76.42
2023-01-11T19:17:57.050Z,75.62
2023-01-11T19:20:23.868Z,75.57
2023-01-11T19:22:50.553Z,76.14
2023-01-11T19:25:17.556Z,76.35
2023-01-11T19:27:44.636Z,76.28
2023-01-11T19:30:12.520Z,76.22
2023-01-11T19:32:39.201Z,76.17
2023-01-11T19:35:09.391Z,76.58
2023-01-11T19:37:37.767Z,76.35
2023-01-11T19:40:06.584Z,76.92
2023-01-11T19:42:33.269Z,76.42
2023-01-11T19:45:00.003Z,76.10
2023-01-11T19:47:26.798Z,75.93
2023-01-11T19:49:56.564Z,77.18
2023-01-11T19:52:23.252Z,75.69
2023-01-11T19:54:49.924Z,76.01
2023-01-11T19:57:19.232Z,76.02
2023-01-11T19:59:47.069Z,77.58
2023-01-11T20:02:15.946Z,76.47
2023-01-11T20:04:43.073Z,77.25
2023-01-11T20:07:11.734Z,77.16
2023-01-11T20:09:38.865Z,77.06
2023-01-11T20:12:07.552Z,76.77
2023-01-11T20:14:35.060Z,77.05
2023-01-11T20:17:02.210Z,76.92
2023-01-11T20:19:28.996Z,77.50
2023-01-11T20:21:56.041Z,77.33
2023-01-11T20:24:28.462Z,77.48
2023-01-11T20:27:00.024Z,77.25
2023-01-11T20:29:27.114Z,77.36
2023-01-11T20:31:54.033Z,76.39
2023-01-11T20:34:20.909Z,75.85
2023-01-11T20:36:48.936Z,75.20
2023-01-11T20:39:16.013Z,76.10
2023-01-11T20:41:48.899Z,77.13
2023-01-11T20:44:25.135Z,77.59
2023-01-11T20:46:53.189Z,77.98
2023-01-11T20:49:23.327Z,78.09
2023-01-11T20:51:50.366Z,78.42
2023-01-11T20:54:17.526Z,79.24
2023-01-11T20:56:47.049Z,78.44
2023-01-11T20:59:17.516Z,78.69
2023-01-11T21:01:44.232Z,79.01
2023-01-11T21:09:33.047Z,80.13
2023-01-11T21:11:59.716Z,81.14
2023-01-11T21:14:26.388Z,82.02
2023-01-11T21:16:55.423Z,82.78
2023-01-11T21:19:22.887Z,83.84
2023-01-11T21:21:49.918Z,85.54
2023-01-11T21:24:16.964Z,86.84
2023-01-11T21:26:45.762Z,88.78
2023-01-11T21:29:13.499Z,89.64
2023-01-11T21:31:41.060Z,89.92
2023-01-11T21:34:10.199Z,90.10
2023-01-11T21:36:36.916Z,90.60
2023-01-11T21:39:04.627Z,91.64
2023-01-11T21:41:51.818Z,91.73
2023-01-11T21:44:19.844Z,91.85
2023-01-11T21:46:48.480Z,91.57
2023-01-11T21:49:15.381Z,93.00
2023-01-11T21:51:43.035Z,92.37
2023-01-11T21:54:12.073Z,91.25
2023-01-11T21:56:39.136Z,91.16
2023-01-11T21:59:05.906Z,90.38
2023-01-11T22:01:32.613Z,89.94
2023-01-11T22:03:59.782Z,89.90
2023-01-11T22:06:26.559Z,89.86
2023-01-11T22:08:53.386Z,90.12
2023-01-11T22:11:20.034Z,90.67
2023-01-11T22:13:46.752Z,91.95
2023-01-11T22:16:16.222Z,92.50
2023-01-11T22:18:43.987Z,92.05
2023-01-11T22:21:17.286Z,93.62
2023-01-11T22:23:45.385Z,94.29
2023-01-11T22:26:17.243Z,96.31
2023-01-11T22:29:06.289Z,96.03
2023-01-11T22:31:34.009Z,96.89
2023-01-11T22:34:00.896Z,97.01
2023-01-11T22:36:28.999Z,97.78
2023-01-11T22:38:56.100Z,98.24
2023-01-11T22:41:24.435Z,99.77
2023-01-11T22:43:51.599Z,100.00
2023-01-11T22:46:21.349Z,100.00
2023-01-11T22:48:48.918Z,100.00
2023-01-11T22:51:20.078Z,100.00
2023-01-11T22:53:48.764Z,100.00
2023-01-11T22:56:21.449Z,99.69
2023-01-11T22:58:50.539Z,99.06
2023-01-11T23:01:28.216Z,100.00
2023-01-11T23:03:56.311Z,99.27
2023-01-11T23:06:31.981Z,97.87
2023-01-11T23:08:59.266Z,97.89
2023-01-11T23:11:47.496Z,98.37
2023-01-11T23:14:16.715Z,98.60
2023-01-11T23:16:44.811Z,97.79
2023-01-11T23:19:13.189Z,98.79
2023-01-11T23:21:42.026Z,98.02
2023-01-11T23:24:10.499Z,98.24
2023-01-11T23:26:37.668Z,98.66
2023-01-11T23:29:05.257Z,98.37
2023-01-11T23:31:32.211Z,96.91
2023-01-11T23:34:00.950Z,97.03
2023-01-11T23:36:31.555Z,96.37
2023-01-11T23:38:58.717Z,95.46
2023-01-11T23:41:44.256Z,94.61
2023-01-11T23:44:14.262Z,94.01
2023-01-11T23:47:00.337Z,94.97
2023-01-11T23:49:27.493Z,93.10
2023-01-11T23:51:55.158Z,92.87
2023-01-11T23:54:22.744Z,92.80
2023-01-11T23:56:49.367Z,91.57
2023-01-11T23:59:15.995Z,92.10
